sensor_id;sensor_type;location;lat;lon;timestamp;temperature;humidity
24224;DHT22;12359;49.716;9.212;2022-12-29T00:02:04;9.20;1.00
24224;DHT22;12359;49.716;9.212;2022-12-29T00:04:30;9.60;1.00
24224;DHT22;12359;49.716;9.212;2022-12-29T00:06:56;9.90;99.90
24224;DHT22;12359;49.716;9.212;2022-12-29T00:09:21;10.50;99.90
24224;DHT22;12359;49.716;9.212;2022-12-29T00:11:47;11.00;99.90
24224;DHT22;12359;49.716;9.212;2022-12-29T00:14:13;11.10;23.40
24224;DHT22;12359;49.716;9.212;2022-12-29T00:16:57;11.20;99.90
24224;DHT22;12359;49.716;9.212;2022-12-29T00:19:23;11.20;99.90
24224;DHT22;12359;49.716;9.212;2022-12-29T00:22:10;11.20;99.90
24224;DHT22;12359;49.716;9.212;2022-12-29T00:24:55;11.20;99.90
24224;DHT22;12359;49.716;9.212;2022-12-29T00:27:30;11.20;99.90
24224;DHT22;12359;49.716;9.212;2022-12-29T00:30:20;11.30;99.90
24224;DHT22;12359;49.716;9.212;2022-12-29T00:33:19;11.30;21.50
24224;DHT22;12359;49.716;9.212;2022-12-29T00:39:07;11.40;99.90
24224;DHT22;12359;49.716;9.212;2022-12-29T00:41:53;11.50;99.90
24224;DHT22;12359;49.716;9.212;2022-12-29T00:44:37;11.60;99.90
24224;DHT22;12359;49.716;9.212;2022-12-29T00:47:03;11.80;99.90
24224;DHT22;12359;49.716;9.212;2022-12-29T00:49:30;11.90;1.00
24224;DHT22;12359;49.716;9.212;2022-12-29T00:52:07;12.00;99.90
24224;DHT22;12359;49.716;9.212;2022-12-29T00:54:38;12.00;1.00
24224;DHT22;12359;49.716;9.212;2022-12-29T00:57:05;11.90;1.00
24224;DHT22;12359;49.716;9.212;2022-12-29T00:59:31;11.90;3.00
24224;DHT22;12359;49.716;9.212;2022-12-29T01:01:58;11.70;99.90
24224;DHT22;12359;49.716;9.212;2022-12-29T01:04:25;11.90;99.90
24224;DHT22;12359;49.716;9.212;2022-12-29T01:06:52;12.00;99.90
24224;DHT22;12359;49.716;9.212;2022-12-29T01:09:18;12.00;99.90
24224;DHT22;12359;49.716;9.212;2022-12-29T01:12:04;12.30;99.90
24224;DHT22;12359;49.716;9.212;2022-12-29T01:14:30;12.50;99.90
24224;DHT22;12359;49.716;9.212;2022-12-29T01:16:56;12.60;1.00
24224;DHT22;12359;49.716;9.212;2022-12-29T01:19:23;12.60;1.00
24224;DHT22;12359;49.716;9.212;2022-12-29T01:21:49;12.50;99.90
24224;DHT22;12359;49.716;9.212;2022-12-29T01:24:16;12.50;99.90
24224;DHT22;12359;49.716;9.212;2022-12-29T01:26:43;12.40;99.90
24224;DHT22;12359;49.716;9.212;2022-12-29T01:29:08;12.30;1.00
24224;DHT22;12359;49.716;9.212;2022-12-29T01:31:35;12.20;99.90
24224;DHT22;12359;49.716;9.212;2022-12-29T01:34:01;12.10;1.00
24224;DHT22;12359;49.716;9.212;2022-12-29T01:36:26;11.90;24.60
24224;DHT22;12359;49.716;9.212;2022-12-29T01:38:52;11.90;63.30
24224;DHT22;12359;49.716;9.212;2022-12-29T01:41:18;11.80;84.40
24224;DHT22;12359;49.716;9.212;2022-12-29T01:43:54;11.70;99.90
24224;DHT22;12359;49.716;9.212;2022-12-29T01:51:31;11.50;99.90
24224;DHT22;12359;49.716;9.212;2022-12-29T01:54:00;11.40;99.90
24224;DHT22;12359;49.716;9.212;2022-12-29T01:56:28;11.30;99.90
24224;DHT22;12359;49.716;9.212;2022-12-29T01:59:03;11.30;99.90
24224;DHT22;12359;49.716;9.212;2022-12-29T02:01:30;11.40;99.90
24224;DHT22;12359;49.716;9.212;2022-12-29T02:03:56;11.30;99.90
24224;DHT22;12359;49.716;9.212;2022-12-29T02:06:33;11.30;99.90
24224;DHT22;12359;49.716;9.212;2022-12-29T02:09:00;11.30;99.90
24224;DHT22;12359;49.716;9.212;2022-12-29T02:11:28;11.20;99.90
24224;DHT22;12359;49.716;9.212;2022-12-29T02:13:56;11.30;99.90
24224;DHT22;12359;49.716;9.212;2022-12-29T02:22:56;11.20;99.90
24224;DHT22;12359;49.716;9.212;2022-12-29T02:28:14;11.20;1.00
24224;DHT22;12359;49.716;9.212;2022-12-29T02:38:50;11.20;1.00
24224;DHT22;12359;49.716;9.212;2022-12-29T02:44:04;11.40;1.00
24224;DHT22;12359;49.716;9.212;2022-12-29T02:49:20;11.40;1.00
24224;DHT22;12359;49.716;9.212;2022-12-29T02:54:37;11.50;1.00
24224;DHT22;12359;49.716;9.212;2022-12-29T02:57:26;11.50;1.00
24224;DHT22;12359;49.716;9.212;2022-12-29T03:00:00;11.50;1.00
24224;DHT22;12359;49.716;9.212;2022-12-29T03:02:55;11.50;1.00
24224;DHT22;12359;49.716;9.212;2022-12-29T03:08:21;11.50;1.00
24224;DHT22;12359;49.716;9.212;2022-12-29T03:13:24;11.40;1.00
24224;DHT22;12359;49.716;9.212;2022-12-29T03:19:09;11.40;1.00
24224;DHT22;12359;49.716;9.212;2022-12-29T03:21:44;11.40;1.00
24224;DHT22;12359;49.716;9.212;2022-12-29T03:24:33;11.40;1.00
24224;DHT22;12359;49.716;9.212;2022-12-29T03:27:03;11.50;1.00
24224;DHT22;12359;49.716;9.212;2022-12-29T03:29:33;11.50;1.00
24224;DHT22;12359;49.716;9.212;2022-12-29T03:32:02;11.60;1.00
24224;DHT22;12359;49.716;9.212;2022-12-29T03:34:30;11.70;1.00
24224;DHT22;12359;49.716;9.212;2022-12-29T03:37:18;11.60;1.00
24224;DHT22;12359;49.716;9.212;2022-12-29T03:39:44;11.70;1.00
24224;DHT22;12359;49.716;9.212;2022-12-29T03:42:14;11.70;1.00
24224;DHT22;12359;49.716;9.212;2022-12-29T03:44:43;11.70;1.00
24224;DHT22;12359;49.716;9.212;2022-12-29T03:47:11;11.70;1.00
24224;DHT22;12359;49.716;9.212;2022-12-29T03:49:37;11.80;1.00
24224;DHT22;12359;49.716;9.212;2022-12-29T03:52:03;11.80;1.00
24224;DHT22;12359;49.716;9.212;2022-12-29T03:54:30;11.90;99.90
24224;DHT22;12359;49.716;9.212;2022-12-29T03:56:56;11.90;99.90
24224;DHT22;12359;49.716;9.212;2022-12-29T03:59:21;12.00;99.90
24224;DHT22;12359;49.716;9.212;2022-12-29T04:01:47;11.90;99.90
24224;DHT22;12359;49.716;9.212;2022-12-29T04:04:13;11.90;99.90
24224;DHT22;12359;49.716;9.212;2022-12-29T04:06:39;11.90;99.90
24224;DHT22;12359;49.716;9.212;2022-12-29T04:09:05;11.80;99.90
24224;DHT22;12359;49.716;9.212;2022-12-29T04:11:31;11.90;99.90
24224;DHT22;12359;49.716;9.212;2022-12-29T04:13:56;11.90;99.90
24224;DHT22;12359;49.716;9.212;2022-12-29T04:16:22;11.90;99.90
24224;DHT22;12359;49.716;9.212;2022-12-29T04:18:48;12.00;99.90
24224;DHT22;12359;49.716;9.212;2022-12-29T04:21:13;12.00;99.90
24224;DHT22;12359;49.716;9.212;2022-12-29T04:23:39;12.00;99.90
24224;DHT22;12359;49.716;9.212;2022-12-29T04:26:06;12.00;99.90
24224;DHT22;12359;49.716;9.212;2022-12-29T04:28:33;12.00;99.90
24224;DHT22;12359;49.716;9.212;2022-12-29T04:30:58;12.00;99.90
24224;DHT22;12359;49.716;9.212;2022-12-29T04:33:24;12.00;99.90
24224;DHT22;12359;49.716;9.212;2022-12-29T04:35:51;12.10;99.90
24224;DHT22;12359;49.716;9.212;2022-12-29T04:38:19;12.00;99.90
24224;DHT22;12359;49.716;9.212;2022-12-29T04:40:46;12.00;99.90
24224;DHT22;12359;49.716;9.212;2022-12-29T04:43:13;12.00;99.90
24224;DHT22;12359;49.716;9.212;2022-12-29T04:45:45;12.10;51.90
24224;DHT22;12359;49.716;9.212;2022-12-29T04:48:12;12.10;49.30
24224;DHT22;12359;49.716;9.212;2022-12-29T04:50:38;12.10;1.00
24224;DHT22;12359;49.716;9.212;2022-12-29T04:53:04;12.10;1.00
24224;DHT22;12359;49.716;9.212;2022-12-29T04:55:30;12.20;1.00
24224;DHT22;12359;49.716;9.212;2022-12-29T04:57:56;12.20;1.00
24224;DHT22;12359;49.716;9.212;2022-12-29T05:00:22;12.20;1.00
24224;DHT22;12359;49.716;9.212;2022-12-29T05:02:47;12.20;1.00
24224;DHT22;12359;49.716;9.212;2022-12-29T05:05:13;12.20;1.00
24224;DHT22;12359;49.716;9.212;2022-12-29T05:07:39;12.10;99.90
24224;DHT22;12359;49.716;9.212;2022-12-29T05:10:06;12.00;99.90
24224;DHT22;12359;49.716;9.212;2022-12-29T05:12:33;12.00;62.70
24224;DHT22;12359;49.716;9.212;2022-12-29T05:14:59;12.00;99.90
24224;DHT22;12359;49.716;9.212;2022-12-29T05:17:25;11.90;99.90
24224;DHT22;12359;49.716;9.212;2022-12-29T05:19:51;11.90;99.90
24224;DHT22;12359;49.716;9.212;2022-12-29T05:22:17;11.80;99.90
24224;DHT22;12359;49.716;9.212;2022-12-29T05:24:42;11.80;99.90
24224;DHT22;12359;49.716;9.212;2022-12-29T05:27:08;11.80;99.90
24224;DHT22;12359;49.716;9.212;2022-12-29T05:29:34;11.80;99.90
24224;DHT22;12359;49.716;9.212;2022-12-29T05:31:59;11.80;99.90
24224;DHT22;12359;49.716;9.212;2022-12-29T05:34:25;11.70;99.90
24224;DHT22;12359;49.716;9.212;2022-12-29T05:36:51;11.70;99.90
24224;DHT22;12359;49.716;9.212;2022-12-29T05:39:16;11.70;99.90
24224;DHT22;12359;49.716;9.212;2022-12-29T05:41:42;11.80;99.90
24224;DHT22;12359;49.716;9.212;2022-12-29T05:44:09;11.80;18.40
24224;DHT22;12359;49.716;9.212;2022-12-29T05:46:35;11.90;22.40
24224;DHT22;12359;49.716;9.212;2022-12-29T05:49:00;11.90;8.00
24224;DHT22;12359;49.716;9.212;2022-12-29T05:51:26;11.90;1.00
24224;DHT22;12359;49.716;9.212;2022-12-29T05:53:52;12.00;1.00
24224;DHT22;12359;49.716;9.212;2022-12-29T05:56:17;12.10;1.00
24224;DHT22;12359;49.716;9.212;2022-12-29T05:58:43;12.00;1.00
24224;DHT22;12359;49.716;9.212;2022-12-29T06:01:09;12.00;1.00
24224;DHT22;12359;49.716;9.212;2022-12-29T06:03:34;12.00;1.00
24224;DHT22;12359;49.716;9.212;2022-12-29T06:06:00;12.00;1.00
24224;DHT22;12359;49.716;9.212;2022-12-29T06:08:26;11.90;1.00
24224;DHT22;12359;49.716;9.212;2022-12-29T06:10:51;12.00;99.90
24224;DHT22;12359;49.716;9.212;2022-12-29T06:13:17;12.00;99.90
24224;DHT22;12359;49.716;9.212;2022-12-29T06:15:43;12.00;99.90
24224;DHT22;12359;49.716;9.212;2022-12-29T06:18:08;12.00;99.90
24224;DHT22;12359;49.716;9.212;2022-12-29T06:20:34;12.00;99.90
24224;DHT22;12359;49.716;9.212;2022-12-29T06:23:00;12.10;99.90
24224;DHT22;12359;49.716;9.212;2022-12-29T06:25:25;12.10;99.90
24224;DHT22;12359;49.716;9.212;2022-12-29T06:27:51;12.10;82.90
24224;DHT22;12359;49.716;9.212;2022-12-29T06:30:17;12.10;99.90
24224;DHT22;12359;49.716;9.212;2022-12-29T06:32:42;12.10;28.30
24224;DHT22;12359;49.716;9.212;2022-12-29T06:35:08;12.10;90.20
24224;DHT22;12359;49.716;9.212;2022-12-29T06:37:35;12.20;1.00
24224;DHT22;12359;49.716;9.212;2022-12-29T06:40:01;12.30;99.90
24224;DHT22;12359;49.716;9.212;2022-12-29T06:42:27;12.40;99.90
24224;DHT22;12359;49.716;9.212;2022-12-29T06:44:53;12.40;99.90
24224;DHT22;12359;49.716;9.212;2022-12-29T06:47:18;12.40;99.90
24224;DHT22;12359;49.716;9.212;2022-12-29T06:49:44;12.40;99.90
24224;DHT22;12359;49.716;9.212;2022-12-29T06:52:10;12.40;99.90
24224;DHT22;12359;49.716;9.212;2022-12-29T06:54:36;12.30;99.90
24224;DHT22;12359;49.716;9.212;2022-12-29T06:57:01;12.40;99.90
24224;DHT22;12359;49.716;9.212;2022-12-29T06:59:27;12.40;99.90
24224;DHT22;12359;49.716;9.212;2022-12-29T07:01:53;12.30;1.00
24224;DHT22;12359;49.716;9.212;2022-12-29T07:04:18;12.30;1.00
24224;DHT22;12359;49.716;9.212;2022-12-29T07:06:44;12.30;5.90
24224;DHT22;12359;49.716;9.212;2022-12-29T07:09:10;12.20;25.20
24224;DHT22;12359;49.716;9.212;2022-12-29T07:11:36;12.20;99.90
24224;DHT22;12359;49.716;9.212;2022-12-29T07:14:02;12.10;99.90
24224;DHT22;12359;49.716;9.212;2022-12-29T07:16:28;12.10;1.00
24224;DHT22;12359;49.716;9.212;2022-12-29T07:18:56;12.20;1.00
24224;DHT22;12359;49.716;9.212;2022-12-29T07:21:22;12.20;99.90
24224;DHT22;12359;49.716;9.212;2022-12-29T07:23:48;12.20;99.90
24224;DHT22;12359;49.716;9.212;2022-12-29T07:26:15;12.20;99.90
24224;DHT22;12359;49.716;9.212;2022-12-29T07:28:43;12.30;99.90
24224;DHT22;12359;49.716;9.212;2022-12-29T07:31:20;12.20;99.90
24224;DHT22;12359;49.716;9.212;2022-12-29T07:33:46;12.30;99.90
24224;DHT22;12359;49.716;9.212;2022-12-29T07:36:13;12.30;99.90
24224;DHT22;12359;49.716;9.212;2022-12-29T07:38:40;12.30;99.90
24224;DHT22;12359;49.716;9.212;2022-12-29T07:41:06;12.30;99.90
24224;DHT22;12359;49.716;9.212;2022-12-29T07:43:32;12.30;93.10
24224;DHT22;12359;49.716;9.212;2022-12-29T07:45:57;12.40;1.00
24224;DHT22;12359;49.716;9.212;2022-12-29T07:48:23;12.40;1.00
24224;DHT22;12359;49.716;9.212;2022-12-29T07:50:49;12.40;1.00
24224;DHT22;12359;49.716;9.212;2022-12-29T07:53:14;12.40;99.90
24224;DHT22;12359;49.716;9.212;2022-12-29T07:55:40;12.50;99.90
24224;DHT22;12359;49.716;9.212;2022-12-29T07:58:07;12.50;99.90
24224;DHT22;12359;49.716;9.212;2022-12-29T08:00:33;12.50;99.90
24224;DHT22;12359;49.716;9.212;2022-12-29T08:02:58;12.50;94.20
24224;DHT22;12359;49.716;9.212;2022-12-29T08:05:24;12.50;99.90
24224;DHT22;12359;49.716;9.212;2022-12-29T08:07:50;12.50;1.00
24224;DHT22;12359;49.716;9.212;2022-12-29T08:10:16;12.40;5.40
24224;DHT22;12359;49.716;9.212;2022-12-29T08:12:42;12.50;99.90
24224;DHT22;12359;49.716;9.212;2022-12-29T08:15:10;12.50;99.90
24224;DHT22;12359;49.716;9.212;2022-12-29T08:17:36;12.60;99.90
24224;DHT22;12359;49.716;9.212;2022-12-29T08:20:02;12.70;99.90
24224;DHT22;12359;49.716;9.212;2022-12-29T08:22:28;12.70;16.30
24224;DHT22;12359;49.716;9.212;2022-12-29T08:24:53;12.70;99.90
24224;DHT22;12359;49.716;9.212;2022-12-29T08:27:19;12.90;99.90
24224;DHT22;12359;49.716;9.212;2022-12-29T08:29:45;12.90;99.90
24224;DHT22;12359;49.716;9.212;2022-12-29T08:32:11;12.90;1.00
24224;DHT22;12359;49.716;9.212;2022-12-29T08:34:37;13.00;99.90
24224;DHT22;12359;49.716;9.212;2022-12-29T08:37:03;13.00;99.90
24224;DHT22;12359;49.716;9.212;2022-12-29T08:39:29;13.00;95.10
24224;DHT22;12359;49.716;9.212;2022-12-29T08:41:54;13.10;99.90
24224;DHT22;12359;49.716;9.212;2022-12-29T08:44:20;13.10;1.00
24224;DHT22;12359;49.716;9.212;2022-12-29T08:46:46;13.20;99.90
24224;DHT22;12359;49.716;9.212;2022-12-29T08:49:12;13.20;1.00
24224;DHT22;12359;49.716;9.212;2022-12-29T08:51:37;13.30;1.00
24224;DHT22;12359;49.716;9.212;2022-12-29T08:54:03;13.30;1.00
24224;DHT22;12359;49.716;9.212;2022-12-29T08:56:29;13.40;99.90
24224;DHT22;12359;49.716;9.212;2022-12-29T08:58:54;13.40;99.90
24224;DHT22;12359;49.716;9.212;2022-12-29T09:01:20;13.40;55.80
24224;DHT22;12359;49.716;9.212;2022-12-29T09:03:47;13.50;1.00
24224;DHT22;12359;49.716;9.212;2022-12-29T09:06:14;13.60;99.90
24224;DHT22;12359;49.716;9.212;2022-12-29T09:08:39;13.60;99.90
24224;DHT22;12359;49.716;9.212;2022-12-29T09:11:14;13.50;17.80
24224;DHT22;12359;49.716;9.212;2022-12-29T09:13:40;13.50;99.90
24224;DHT22;12359;49.716;9.212;2022-12-29T09:16:06;13.60;2.30
24224;DHT22;12359;49.716;9.212;2022-12-29T09:18:32;13.50;99.90
24224;DHT22;12359;49.716;9.212;2022-12-29T09:21:00;13.50;99.90
24224;DHT22;12359;49.716;9.212;2022-12-29T09:23:27;13.50;99.90
24224;DHT22;12359;49.716;9.212;2022-12-29T09:25:53;13.50;1.00
24224;DHT22;12359;49.716;9.212;2022-12-29T09:28:20;13.50;49.70
24224;DHT22;12359;49.716;9.212;2022-12-29T09:30:46;13.50;24.20
24224;DHT22;12359;49.716;9.212;2022-12-29T09:33:12;13.50;20.00
24224;DHT22;12359;49.716;9.212;2022-12-29T09:35:45;13.50;58.40
24224;DHT22;12359;49.716;9.212;2022-12-29T09:38:11;13.40;99.90
24224;DHT22;12359;49.716;9.212;2022-12-29T09:40:38;13.50;99.90
24224;DHT22;12359;49.716;9.212;2022-12-29T09:45:50;13.50;99.90
24224;DHT22;12359;49.716;9.212;2022-12-29T09:48:23;13.50;99.90
24224;DHT22;12359;49.716;9.212;2022-12-29T09:50:59;13.50;99.90
24224;DHT22;12359;49.716;9.212;2022-12-29T09:53:34;13.50;99.90
24224;DHT22;12359;49.716;9.212;2022-12-29T09:56:02;13.50;99.90
24224;DHT22;12359;49.716;9.212;2022-12-29T09:58:37;13.50;99.90
24224;DHT22;12359;49.716;9.212;2022-12-29T10:04:08;13.60;99.90
24224;DHT22;12359;49.716;9.212;2022-12-29T10:17:18;13.60;99.90
24224;DHT22;12359;49.716;9.212;2022-12-29T10:23:17;13.50;1.00
24224;DHT22;12359;49.716;9.212;2022-12-29T10:25:37;13.40;18.40
24224;DHT22;12359;49.716;9.212;2022-12-29T10:28:06;13.30;1.00
24224;DHT22;12359;49.716;9.212;2022-12-29T10:30:35;13.20;1.00
24224;DHT22;12359;49.716;9.212;2022-12-29T10:33:05;13.20;1.00
24224;DHT22;12359;49.716;9.212;2022-12-29T10:35:35;13.10;1.00
24224;DHT22;12359;49.716;9.212;2022-12-29T10:41:20;13.10;99.90
24224;DHT22;12359;49.716;9.212;2022-12-29T10:43:51;13.10;1.00
24224;DHT22;12359;49.716;9.212;2022-12-29T10:46:24;13.20;99.90
24224;DHT22;12359;49.716;9.212;2022-12-29T10:48:51;13.20;99.90
24224;DHT22;12359;49.716;9.212;2022-12-29T10:51:26;13.20;97.90
24224;DHT22;12359;49.716;9.212;2022-12-29T10:57:01;13.20;99.90
24224;DHT22;12359;49.716;9.212;2022-12-29T10:59:34;13.20;1.00
24224;DHT22;12359;49.716;9.212;2022-12-29T11:07:18;13.20;1.00
24224;DHT22;12359;49.716;9.212;2022-12-29T11:09:45;13.20;1.00
24224;DHT22;12359;49.716;9.212;2022-12-29T11:12:37;13.20;99.90
24224;DHT22;12359;49.716;9.212;2022-12-29T11:20:32;13.30;99.90
24224;DHT22;12359;49.716;9.212;2022-12-29T11:22:59;13.30;99.90
24224;DHT22;12359;49.716;9.212;2022-12-29T11:25:25;13.40;99.90
24224;DHT22;12359;49.716;9.212;2022-12-29T11:28:04;13.40;1.00
24224;DHT22;12359;49.716;9.212;2022-12-29T11:30:39;13.40;1.00
24224;DHT22;12359;49.716;9.212;2022-12-29T11:33:04;13.40;99.90
24224;DHT22;12359;49.716;9.212;2022-12-29T11:35:36;13.40;99.90
24224;DHT22;12359;49.716;9.212;2022-12-29T11:38:04;13.50;4.30
24224;DHT22;12359;49.716;9.212;2022-12-29T11:40:31;13.40;1.00
24224;DHT22;12359;49.716;9.212;2022-12-29T11:43:03;13.30;99.90
24224;DHT22;12359;49.716;9.212;2022-12-29T11:45:36;13.30;99.90
24224;DHT22;12359;49.716;9.212;2022-12-29T11:48:19;13.40;39.90
24224;DHT22;12359;49.716;9.212;2022-12-29T11:50:54;13.40;99.90
24224;DHT22;12359;49.716;9.212;2022-12-29T11:55:54;13.70;99.90
24224;DHT22;12359;49.716;9.212;2022-12-29T11:58:28;13.60;99.90
24224;DHT22;12359;49.716;9.212;2022-12-29T12:00:56;13.70;99.90
24224;DHT22;12359;49.716;9.212;2022-12-29T12:03:24;13.60;1.00
24224;DHT22;12359;49.716;9.212;2022-12-29T12:05:57;13.60;99.90
24224;DHT22;12359;49.716;9.212;2022-12-29T12:08:37;13.60;1.00
24224;DHT22;12359;49.716;9.212;2022-12-29T12:11:19;13.50;99.90
24224;DHT22;12359;49.716;9.212;2022-12-29T12:16:52;13.30;1.00
24224;DHT22;12359;49.716;9.212;2022-12-29T12:22:36;13.20;99.90
24224;DHT22;12359;49.716;9.212;2022-12-29T12:25:23;13.10;99.90
24224;DHT22;12359;49.716;9.212;2022-12-29T12:30:33;12.90;99.90
24224;DHT22;12359;49.716;9.212;2022-12-29T12:33:29;12.90;99.90
24224;DHT22;12359;49.716;9.212;2022-12-29T12:41:34;12.70;99.90
24224;DHT22;12359;49.716;9.212;2022-12-29T12:44:51;12.70;99.90
24224;DHT22;12359;49.716;9.212;2022-12-29T12:52:22;12.70;99.90
24224;DHT22;12359;49.716;9.212;2022-12-29T12:55:06;12.60;99.90
24224;DHT22;12359;49.716;9.212;2022-12-29T12:58:01;12.50;1.00
24224;DHT22;12359;49.716;9.212;2022-12-29T13:00:54;12.60;1.00
24224;DHT22;12359;49.716;9.212;2022-12-29T13:03:38;12.60;1.00
24224;DHT22;12359;49.716;9.212;2022-12-29T13:06:18;12.50;99.90
24224;DHT22;12359;49.716;9.212;2022-12-29T13:10:09;12.60;99.90
24224;DHT22;12359;49.716;9.212;2022-12-29T13:12:32;12.50;99.90
24224;DHT22;12359;49.716;9.212;2022-12-29T13:25:50;12.60;99.90
24224;DHT22;12359;49.716;9.212;2022-12-29T13:36:19;12.80;7.70
24224;DHT22;12359;49.716;9.212;2022-12-29T13:38:51;12.70;1.00
24224;DHT22;12359;49.716;9.212;2022-12-29T13:44:05;12.60;99.90
24224;DHT22;12359;49.716;9.212;2022-12-29T13:46:41;12.60;99.90
24224;DHT22;12359;49.716;9.212;2022-12-29T13:49:26;12.60;97.30
24224;DHT22;12359;49.716;9.212;2022-12-29T13:51:58;12.60;99.50
24224;DHT22;12359;49.716;9.212;2022-12-29T13:54:44;12.60;1.00
24224;DHT22;12359;49.716;9.212;2022-12-29T14:00:26;12.50;99.90
24224;DHT22;12359;49.716;9.212;2022-12-29T14:02:57;12.50;97.80
24224;DHT22;12359;49.716;9.212;2022-12-29T14:05:30;12.60;99.90
24224;DHT22;12359;49.716;9.212;2022-12-29T14:08:02;12.50;99.90
24224;DHT22;12359;49.716;9.212;2022-12-29T14:13:24;12.50;1.00
24224;DHT22;12359;49.716;9.212;2022-12-29T14:15:59;12.50;99.90
24224;DHT22;12359;49.716;9.212;2022-12-29T14:18:29;12.40;99.90
24224;DHT22;12359;49.716;9.212;2022-12-29T14:26:18;12.40;99.90
24224;DHT22;12359;49.716;9.212;2022-12-29T14:28:53;12.40;99.90
24224;DHT22;12359;49.716;9.212;2022-12-29T14:36:39;12.30;99.90
24224;DHT22;12359;49.716;9.212;2022-12-29T14:42:01;12.20;1.00
24224;DHT22;12359;49.716;9.212;2022-12-29T14:44:28;12.10;1.00
24224;DHT22;12359;49.716;9.212;2022-12-29T14:49:22;12.00;47.30
24224;DHT22;12359;49.716;9.212;2022-12-29T14:51:52;11.90;1.00
24224;DHT22;12359;49.716;9.212;2022-12-29T14:54:40;11.80;21.90
24224;DHT22;12359;49.716;9.212;2022-12-29T14:57:14;11.70;99.90
24224;DHT22;12359;49.716;9.212;2022-12-29T14:59:40;11.60;99.90
24224;DHT22;12359;49.716;9.212;2022-12-29T15:02:18;11.50;99.90
24224;DHT22;12359;49.716;9.212;2022-12-29T15:04:47;11.40;99.90
24224;DHT22;12359;49.716;9.212;2022-12-29T15:07:13;11.30;99.90
24224;DHT22;12359;49.716;9.212;2022-12-29T15:09:43;11.20;1.00
24224;DHT22;12359;49.716;9.212;2022-12-29T15:12:30;11.10;1.00
24224;DHT22;12359;49.716;9.212;2022-12-29T15:14:59;11.10;1.00
24224;DHT22;12359;49.716;9.212;2022-12-29T15:17:32;11.00;1.00
24224;DHT22;12359;49.716;9.212;2022-12-29T15:20:13;11.00;1.00
24224;DHT22;12359;49.716;9.212;2022-12-29T15:22:43;10.90;1.00
24224;DHT22;12359;49.716;9.212;2022-12-29T15:25:15;10.80;1.00
24224;DHT22;12359;49.716;9.212;2022-12-29T15:27:41;10.80;1.00
24224;DHT22;12359;49.716;9.212;2022-12-29T15:30:12;10.70;1.00
24224;DHT22;12359;49.716;9.212;2022-12-29T15:32:50;10.60;1.00
24224;DHT22;12359;49.716;9.212;2022-12-29T15:37:57;10.50;1.00
24224;DHT22;12359;49.716;9.212;2022-12-29T15:40:32;10.50;1.00
24224;DHT22;12359;49.716;9.212;2022-12-29T15:45:34;10.30;6.50
24224;DHT22;12359;49.716;9.212;2022-12-29T15:48:00;10.30;9.80
24224;DHT22;12359;49.716;9.212;2022-12-29T15:50:31;10.20;12.30
24224;DHT22;12359;49.716;9.212;2022-12-29T15:52:58;10.20;13.60
24224;DHT22;12359;49.716;9.212;2022-12-29T15:55:34;10.20;21.70
24224;DHT22;12359;49.716;9.212;2022-12-29T15:58:18;10.20;21.00
24224;DHT22;12359;49.716;9.212;2022-12-29T16:00:49;10.20;27.20
24224;DHT22;12359;49.716;9.212;2022-12-29T16:03:16;10.10;31.80
24224;DHT22;12359;49.716;9.212;2022-12-29T16:05:50;10.00;28.40
24224;DHT22;12359;49.716;9.212;2022-12-29T16:08:29;10.00;29.70
24224;DHT22;12359;49.716;9.212;2022-12-29T16:10:56;9.90;37.00
24224;DHT22;12359;49.716;9.212;2022-12-29T16:13:32;9.90;41.30
24224;DHT22;12359;49.716;9.212;2022-12-29T16:16:07;9.80;42.50
24224;DHT22;12359;49.716;9.212;2022-12-29T16:18:35;9.70;38.10
24224;DHT22;12359;49.716;9.212;2022-12-29T16:21:03;9.70;43.80
24224;DHT22;12359;49.716;9.212;2022-12-29T16:23:30;9.60;41.40
24224;DHT22;12359;49.716;9.212;2022-12-29T16:25:56;9.60;43.40
24224;DHT22;12359;49.716;9.212;2022-12-29T16:28:43;9.50;45.90
24224;DHT22;12359;49.716;9.212;2022-12-29T16:31:24;9.50;48.50
24224;DHT22;12359;49.716;9.212;2022-12-29T16:33:51;9.40;48.30
24224;DHT22;12359;49.716;9.212;2022-12-29T16:38:51;9.40;51.10
24224;DHT22;12359;49.716;9.212;2022-12-29T16:41:31;9.30;51.80
24224;DHT22;12359;49.716;9.212;2022-12-29T16:44:23;9.30;55.10
24224;DHT22;12359;49.716;9.212;2022-12-29T16:49:39;9.30;53.00
24224;DHT22;12359;49.716;9.212;2022-12-29T16:52:20;9.30;50.90
24224;DHT22;12359;49.716;9.212;2022-12-29T16:54:56;9.30;50.50
24224;DHT22;12359;49.716;9.212;2022-12-29T16:57:35;9.20;48.20
24224;DHT22;12359;49.716;9.212;2022-12-29T17:00:05;9.10;55.90
24224;DHT22;12359;49.716;9.212;2022-12-29T17:02:32;9.20;57.40
24224;DHT22;12359;49.716;9.212;2022-12-29T17:04:58;9.20;57.50
24224;DHT22;12359;49.716;9.212;2022-12-29T17:07:25;9.20;57.70
24224;DHT22;12359;49.716;9.212;2022-12-29T17:09:52;9.20;52.80
24224;DHT22;12359;49.716;9.212;2022-12-29T17:12:26;9.20;52.90
24224;DHT22;12359;49.716;9.212;2022-12-29T17:14:58;9.10;51.50
24224;DHT22;12359;49.716;9.212;2022-12-29T17:17:34;9.20;53.50
24224;DHT22;12359;49.716;9.212;2022-12-29T17:20:08;9.20;54.10
24224;DHT22;12359;49.716;9.212;2022-12-29T17:22:38;9.30;50.00
24224;DHT22;12359;49.716;9.212;2022-12-29T17:25:04;9.40;48.90
24224;DHT22;12359;49.716;9.212;2022-12-29T17:30:05;9.30;41.90
24224;DHT22;12359;49.716;9.212;2022-12-29T17:32:34;9.30;45.40
24224;DHT22;12359;49.716;9.212;2022-12-29T17:35:00;9.30;41.30
24224;DHT22;12359;49.716;9.212;2022-12-29T17:37:35;9.30;42.50
24224;DHT22;12359;49.716;9.212;2022-12-29T17:40:03;9.20;41.60
24224;DHT22;12359;49.716;9.212;2022-12-29T17:42:29;9.20;43.10
24224;DHT22;12359;49.716;9.212;2022-12-29T17:44:58;9.20;43.40
24224;DHT22;12359;49.716;9.212;2022-12-29T17:47:24;9.20;43.90
24224;DHT22;12359;49.716;9.212;2022-12-29T17:49:49;9.20;44.20
24224;DHT22;12359;49.716;9.212;2022-12-29T17:52:16;9.30;37.90
24224;DHT22;12359;49.716;9.212;2022-12-29T17:54:52;9.30;36.10
24224;DHT22;12359;49.716;9.212;2022-12-29T17:57:20;9.40;35.30
24224;DHT22;12359;49.716;9.212;2022-12-29T17:59:46;9.40;31.50
24224;DHT22;12359;49.716;9.212;2022-12-29T18:02:31;9.40;33.90
24224;DHT22;12359;49.716;9.212;2022-12-29T18:04:58;9.50;33.70
24224;DHT22;12359;49.716;9.212;2022-12-29T18:07:27;9.50;33.30
24224;DHT22;12359;49.716;9.212;2022-12-29T18:09:54;9.40;31.60
24224;DHT22;12359;49.716;9.212;2022-12-29T18:14:56;9.40;37.30
24224;DHT22;12359;49.716;9.212;2022-12-29T18:17:22;9.50;39.10
24224;DHT22;12359;49.716;9.212;2022-12-29T18:19:47;9.50;38.80
24224;DHT22;12359;49.716;9.212;2022-12-29T18:22:15;9.50;34.70
24224;DHT22;12359;49.716;9.212;2022-12-29T18:24:40;9.50;38.50
24224;DHT22;12359;49.716;9.212;2022-12-29T18:27:13;9.40;37.80
24224;DHT22;12359;49.716;9.212;2022-12-29T18:29:40;9.40;40.70
24224;DHT22;12359;49.716;9.212;2022-12-29T18:32:11;9.40;40.40
24224;DHT22;12359;49.716;9.212;2022-12-29T18:34:38;9.50;40.80
24224;DHT22;12359;49.716;9.212;2022-12-29T18:37:04;9.40;43.20